createdAt,value
2022-12-27T00:01:47.130Z,5.74
2022-12-27T00:04:15.084Z,5.71
2022-12-27T00:06:43.511Z,5.68
2022-12-27T00:09:12.852Z,5.70
2022-12-27T00:11:40.845Z,5.72
2022-12-27T00:14:09.300Z,5.56
2022-12-27T00:16:38.417Z,5.53
2022-12-27T00:19:06.797Z,5.27
2022-12-27T00:21:36.264Z,5.35
2022-12-27T00:24:04.317Z,5.35
2022-12-27T00:26:35.932Z,5.36
2022-12-27T00:29:03.980Z,5.22
2022-12-27T00:31:33.535Z,5.25
2022-12-27T00:34:03.614Z,5.21
2022-12-27T00:36:32.724Z,5.18
2022-12-27T00:39:01.718Z,5.20
2022-12-27T00:41:29.734Z,5.17
2022-12-27T00:43:59.027Z,5.11
2022-12-27T00:46:27.123Z,5.16
2022-12-27T00:48:55.481Z,5.16
2022-12-27T00:51:25.823Z,5.09
2022-12-27T00:53:54.911Z,4.94
2022-12-27T00:56:24.638Z,4.99
2022-12-27T00:58:55.136Z,4.98
2022-12-27T01:01:26.242Z,4.73
2022-12-27T01:03:54.571Z,4.68
2022-12-27T01:06:25.766Z,4.81
2022-12-27T01:08:53.686Z,4.72
2022-12-27T01:11:22.136Z,4.73
2022-12-27T01:13:50.257Z,4.78
2022-12-27T01:16:20.516Z,4.42
2022-12-27T01:18:50.728Z,4.49
2022-12-27T01:21:22.148Z,4.57
2022-12-27T01:23:53.453Z,4.54
2022-12-27T01:26:24.098Z,4.52
2022-12-27T01:28:53.089Z,4.52
2022-12-27T01:31:22.991Z,4.50
2022-12-27T01:33:55.705Z,4.34
2022-12-27T01:36:25.738Z,4.36
2022-12-27T01:38:55.270Z,4.33
2022-12-27T01:41:42.179Z,4.22
2022-12-27T01:44:55.904Z,4.17
2022-12-27T01:47:34.290Z,4.24
2022-12-27T01:50:11.257Z,4.13
2022-12-27T01:52:44.013Z,4.15
2022-12-27T01:55:18.944Z,4.04
2022-12-27T01:57:48.399Z,4.03
2022-12-27T02:00:17.252Z,3.98
2022-12-27T02:02:45.427Z,4.06
2022-12-27T02:05:18.330Z,4.08
2022-12-27T02:08:02.137Z,3.90
2022-12-27T02:10:31.473Z,3.89
2022-12-27T02:13:00.479Z,3.95
2022-12-27T02:15:29.193Z,4.04
2022-12-27T02:17:57.335Z,3.96
2022-12-27T02:20:32.233Z,3.90
2022-12-27T02:23:50.770Z,3.86
2022-12-27T02:26:40.066Z,3.80
2022-12-27T02:29:17.750Z,3.79
2022-12-27T02:31:53.076Z,3.82
2022-12-27T02:34:25.825Z,3.81
2022-12-27T02:37:00.044Z,3.79
2022-12-27T02:39:30.313Z,3.80
2022-12-27T02:42:21.533Z,3.69
2022-12-27T02:45:13.683Z,3.74
2022-12-27T02:47:59.029Z,3.63
2022-12-27T02:50:53.394Z,3.73
2022-12-27T02:53:31.483Z,3.68
2022-12-27T02:56:30.733Z,3.53
2022-12-27T02:59:14.364Z,3.58
2022-12-27T03:02:12.402Z,3.70
2022-12-27T03:05:00.601Z,3.73
2022-12-27T03:07:38.903Z,3.67
2022-12-27T03:10:44.135Z,3.68
2022-12-27T03:13:42.556Z,3.57
2022-12-27T03:16:19.067Z,3.65
2022-12-27T03:19:11.732Z,3.57
2022-12-27T03:22:01.955Z,3.40
2022-12-27T03:24:51.221Z,3.45
2022-12-27T03:27:28.301Z,3.53
2022-12-27T03:30:16.569Z,3.53
2022-12-27T03:33:08.512Z,3.55
2022-12-27T03:35:42.910Z,3.49
2022-12-27T03:38:13.746Z,3.30
2022-12-27T03:41:08.190Z,3.40
2022-12-27T03:43:37.956Z,3.42
2022-12-27T03:46:33.136Z,3.22
2022-12-27T03:49:10.543Z,3.40
2022-12-27T03:51:43.631Z,3.29
2022-12-27T03:54:17.932Z,3.25
2022-12-27T03:56:45.923Z,3.48
2022-12-27T03:59:14.197Z,3.43
2022-12-27T04:01:43.055Z,3.34
2022-12-27T04:04:11.071Z,3.30
2022-12-27T04:06:40.706Z,3.23
2022-12-27T04:09:28.167Z,3.28
2022-12-27T04:12:13.872Z,3.37
2022-12-27T04:14:59.165Z,3.30
2022-12-27T04:17:44.883Z,3.17
2022-12-27T04:20:31.060Z,3.16
2022-12-27T04:23:17.617Z,3.11
2022-12-27T04:26:03.396Z,2.97
2022-12-27T04:28:48.614Z,2.97
2022-12-27T04:31:34.926Z,2.99
2022-12-27T04:34:20.491Z,2.98
2022-12-27T04:36:48.808Z,2.97
2022-12-27T04:39:18.150Z,2.92
2022-12-27T04:42:03.683Z,3.08
2022-12-27T04:44:48.827Z,2.99
2022-12-27T04:47:39.236Z,2.96
2022-12-27T04:50:31.805Z,3.05
2022-12-27T04:53:17.099Z,2.92
2022-12-27T04:55:46.379Z,2.81
2022-12-27T04:58:14.281Z,2.82
2022-12-27T05:01:13.947Z,2.78
2022-12-27T05:03:43.039Z,2.78
2022-12-27T05:06:11.120Z,2.79
2022-12-27T05:08:56.783Z,2.86
2022-12-27T05:11:44.588Z,2.88
2022-12-27T05:14:15.606Z,2.86
2022-12-27T05:16:45.549Z,2.76
2022-12-27T05:19:15.101Z,2.97
2022-12-27T05:22:05.662Z,2.87
2022-12-27T05:24:51.293Z,2.88
2022-12-27T05:27:20.811Z,2.88
2022-12-27T05:29:48.793Z,2.93
2022-12-27T05:32:16.828Z,3.08
2022-12-27T05:34:44.876Z,3.12
2022-12-27T05:37:12.831Z,3.22
2022-12-27T05:39:40.826Z,3.35
2022-12-27T05:42:08.814Z,3.41
2022-12-27T05:44:38.085Z,3.41
2022-12-27T05:47:06.110Z,3.52
2022-12-27T05:49:34.044Z,3.56
2022-12-27T05:52:01.953Z,3.63
2022-12-27T05:54:29.859Z,3.60
2022-12-27T05:56:57.957Z,3.63
2022-12-27T05:59:25.945Z,3.67
2022-12-27T06:01:55.397Z,3.60
2022-12-27T06:04:23.486Z,3.54
2022-12-27T06:06:51.560Z,3.41
2022-12-27T06:09:19.457Z,3.34
2022-12-27T06:11:47.322Z,3.29
2022-12-27T06:14:15.338Z,3.28
2022-12-27T06:16:43.458Z,3.17
2022-12-27T06:19:12.815Z,3.25
2022-12-27T06:21:40.837Z,3.24
2022-12-27T06:24:09.094Z,3.22
2022-12-27T06:26:38.619Z,3.09
2022-12-27T06:29:06.618Z,3.11
2022-12-27T06:31:34.737Z,2.98
2022-12-27T06:34:02.701Z,2.97
2022-12-27T06:36:32.672Z,2.95
2022-12-27T06:39:01.179Z,2.99
2022-12-27T06:41:29.212Z,3.02
2022-12-27T06:43:59.045Z,2.83
2022-12-27T06:46:27.088Z,2.89
2022-12-27T06:48:55.075Z,3.00
2022-12-27T06:51:23.081Z,2.90
2022-12-27T06:53:52.489Z,2.91
2022-12-27T06:56:21.873Z,2.93
2022-12-27T06:58:51.577Z,2.93
2022-12-27T07:01:22.349Z,3.02
2022-12-27T07:03:51.612Z,3.07
2022-12-27T07:06:20.329Z,3.04
2022-12-27T07:08:48.748Z,3.14
2022-12-27T07:11:20.282Z,3.07
2022-12-27T07:13:50.133Z,2.95
2022-12-27T07:16:21.033Z,2.96
2022-12-27T07:18:50.062Z,2.96
2022-12-27T07:21:20.907Z,3.15
2022-12-27T07:23:49.259Z,3.08
2022-12-27T07:26:20.869Z,3.14
2022-12-27T07:28:49.147Z,3.22
2022-12-27T07:31:20.216Z,3.27
2022-12-27T07:33:48.200Z,3.35
2022-12-27T07:36:19.291Z,3.24
2022-12-27T07:38:47.347Z,3.36
2022-12-27T07:41:15.682Z,3.38
2022-12-27T07:43:46.094Z,3.35
2022-12-27T07:46:16.143Z,3.30
2022-12-27T07:48:44.757Z,3.27
2022-12-27T07:51:13.098Z,3.29
2022-12-27T07:53:41.254Z,3.26
2022-12-27T07:56:11.167Z,3.38
2022-12-27T07:58:40.157Z,3.30
2022-12-27T08:01:10.936Z,3.37
2022-12-27T08:03:40.098Z,3.34
2022-12-27T08:06:09.495Z,3.37
2022-12-27T08:08:40.517Z,3.38
2022-12-27T08:11:08.487Z,3.38
2022-12-27T08:13:36.595Z,3.29
2022-12-27T08:16:05.431Z,3.37
2022-12-27T08:18:35.463Z,3.29
2022-12-27T08:21:03.363Z,3.47
2022-12-27T08:23:31.208Z,3.32
2022-12-27T08:25:59.106Z,3.27
2022-12-27T08:28:28.175Z,3.35
2022-12-27T08:30:56.219Z,3.56
2022-12-27T08:33:24.911Z,3.65
2022-12-27T08:35:57.032Z,3.72
2022-12-27T08:38:24.909Z,3.88
2022-12-27T08:40:52.883Z,3.79
2022-12-27T08:43:20.817Z,3.98
2022-12-27T08:45:48.806Z,3.98
2022-12-27T08:48:16.935Z,4.05
2022-12-27T08:50:45.045Z,4.02
2022-12-27T08:53:14.428Z,4.15
2022-12-27T08:55:42.338Z,4.20
2022-12-27T08:58:16.029Z,4.20
2022-12-27T09:00:44.737Z,4.26
2022-12-27T09:03:12.677Z,4.28
2022-12-27T09:05:42.091Z,4.29
2022-12-27T09:08:10.759Z,4.33
2022-12-27T09:10:40.203Z,4.28
2022-12-27T09:13:08.181Z,4.28
2022-12-27T09:15:36.141Z,4.42
2022-12-27T09:18:04.107Z,4.47
2022-12-27T09:20:32.101Z,4.39
2022-12-27T09:23:00.077Z,4.48
2022-12-27T09:25:28.081Z,4.44
2022-12-27T09:27:57.371Z,4.49
2022-12-27T09:30:25.322Z,4.49
2022-12-27T09:32:53.226Z,4.53
2022-12-27T09:35:21.112Z,4.53
2022-12-27T09:37:49.043Z,4.59
2022-12-27T09:40:20.185Z,4.63
2022-12-27T09:43:09.447Z,4.59
2022-12-27T09:45:47.782Z,4.50
2022-12-27T09:48:27.698Z,4.66
2022-12-27T09:51:02.843Z,4.76
2022-12-27T09:53:40.120Z,4.80
2022-12-27T09:56:11.007Z,4.91
2022-12-27T09:58:45.666Z,5.02
2022-12-27T10:01:19.969Z,5.04
2022-12-27T10:03:48.449Z,5.11
2022-12-27T10:06:33.725Z,5.10
2022-12-27T10:09:12.534Z,5.16
2022-12-27T10:11:50.297Z,5.34
2022-12-27T10:14:31.268Z,5.38
2022-12-27T10:17:08.949Z,5.26
2022-12-27T10:19:45.965Z,5.26
2022-12-27T10:22:23.422Z,5.18
2022-12-27T10:24:56.308Z,5.28
2022-12-27T10:27:27.120Z,5.16
2022-12-27T10:29:57.743Z,5.22
2022-12-27T10:32:27.995Z,5.10
2022-12-27T10:34:57.765Z,5.21
2022-12-27T10:37:25.780Z,5.21
2022-12-27T10:39:53.886Z,5.19
2022-12-27T10:42:35.268Z,5.22
2022-12-27T10:45:29.348Z,5.33
2022-12-27T10:48:11.194Z,5.34
2022-12-27T10:50:40.034Z,5.33
2022-12-27T10:53:37.136Z,5.44
2022-12-27T10:56:11.085Z,5.35
2022-12-27T10:58:41.560Z,5.32
2022-12-27T11:01:17.722Z,5.35
2022-12-27T11:03:47.124Z,5.40
2022-12-27T11:06:22.063Z,5.31
2022-12-27T11:08:51.886Z,5.35
2022-12-27T11:11:22.416Z,5.44
2022-12-27T11:13:50.512Z,5.35
2022-12-27T11:16:27.337Z,5.48
2022-12-27T11:18:59.359Z,5.47
2022-12-27T11:21:30.275Z,5.22
2022-12-27T11:24:01.760Z,5.38
2022-12-27T11:26:35.109Z,5.34
2022-12-27T11:29:03.932Z,5.28
2022-12-27T11:31:36.224Z,5.35
2022-12-27T11:34:14.144Z,5.34
2022-12-27T11:36:47.280Z,5.43
2022-12-27T11:39:47.553Z,5.42
2022-12-27T11:42:24.994Z,5.42
2022-12-27T11:45:04.169Z,5.42
2022-12-27T11:47:38.967Z,5.46
2022-12-27T11:50:38.251Z,5.54
2022-12-27T11:53:15.685Z,5.59
2022-12-27T11:55:58.436Z,5.49
2022-12-27T11:58:44.655Z,5.54
2022-12-27T12:01:30.679Z,5.53
2022-12-27T12:04:33.027Z,5.58
2022-12-27T12:07:12.673Z,5.51
2022-12-27T12:09:56.767Z,5.55
2022-12-27T12:12:49.428Z,5.63
2022-12-27T12:15:38.873Z,5.65
2022-12-27T12:18:23.440Z,5.73
2022-12-27T12:21:23.890Z,5.77
2022-12-27T12:24:09.810Z,5.77
2022-12-27T12:26:55.684Z,5.88
2022-12-27T12:29:53.135Z,5.73
2022-12-27T12:32:34.345Z,5.82
2022-12-27T12:35:17.939Z,5.83
2022-12-27T12:38:02.801Z,5.86
2022-12-27T12:41:01.543Z,5.87
2022-12-27T12:43:48.849Z,6.46
2022-12-27T12:46:28.416Z,8.05
2022-12-27T12:49:19.523Z,7.96
2022-12-27T12:52:08.469Z,7.50
2022-12-27T12:54:56.027Z,7.77
2022-12-27T12:57:42.718Z,7.35
2022-12-27T13:00:25.077Z,7.62
2022-12-27T13:03:31.054Z,7.12
2022-12-27T13:06:04.684Z,7.59
2022-12-27T13:08:40.913Z,8.45
2022-12-27T13:11:30.090Z,8.18
2022-12-27T13:14:17.267Z,7.42
2022-12-27T13:16:53.754Z,8.31
2022-12-27T13:19:39.176Z,8.66
2022-12-27T13:22:16.539Z,8.35
2022-12-27T13:25:04.552Z,7.13
2022-12-27T13:27:40.351Z,6.84
2022-12-27T13:30:21.224Z,6.68
2022-12-27T13:33:09.562Z,6.36
2022-12-27T13:35:51.603Z,6.27
2022-12-27T13:38:36.808Z,6.26
2022-12-27T13:41:39.919Z,6.17
2022-12-27T13:44:21.906Z,6.07
2022-12-27T13:47:13.319Z,6.04
2022-12-27T13:49:59.798Z,6.05
2022-12-27T13:52:45.652Z,6.03
2022-12-27T13:55:31.726Z,5.97
2022-12-27T13:58:22.766Z,5.90
2022-12-27T14:00:59.180Z,5.86
2022-12-27T14:03:50.844Z,5.81
2022-12-27T14:06:57.362Z,5.88
2022-12-27T14:09:49.527Z,5.88
2022-12-27T14:12:51.971Z,5.87
2022-12-27T14:15:23.334Z,5.90
2022-12-27T14:18:03.365Z,5.84
2022-12-27T14:20:46.284Z,5.84
2022-12-27T14:23:40.026Z,5.86
2022-12-27T14:26:49.455Z,5.87
2022-12-27T14:29:40.356Z,5.82
2022-12-27T14:32:37.546Z,5.82
2022-12-27T14:35:46.907Z,5.73
2022-12-27T14:38:56.750Z,5.83
2022-12-27T14:42:08.536Z,5.74
2022-12-27T14:45:11.209Z,5.66
2022-12-27T14:48:06.036Z,5.73
2022-12-27T14:51:50.423Z,5.74
2022-12-27T14:54:42.222Z,5.60
2022-12-27T14:57:33.529Z,5.44
2022-12-27T15:00:12.343Z,5.50
2022-12-27T15:02:57.804Z,5.40
2022-12-27T15:05:37.688Z,5.26
2022-12-27T15:08:44.198Z,5.39
2022-12-27T15:11:38.759Z,5.33
2022-12-27T15:14:27.719Z,5.35
2022-12-27T15:17:07.643Z,5.40
2022-12-27T15:20:08.135Z,5.30
2022-12-27T15:22:52.897Z,5.19
2022-12-27T15:25:29.730Z,5.22
2022-12-27T15:28:06.869Z,5.25
2022-12-27T15:30:46.338Z,5.10
2022-12-27T15:33:23.427Z,5.17
2022-12-27T15:35:56.897Z,5.05
2022-12-27T15:38:52.873Z,5.16
2022-12-27T15:41:41.081Z,5.16
2022-12-27T15:44:43.201Z,5.12
2022-12-27T15:47:29.483Z,5.05
2022-12-27T15:50:30.948Z,5.04
2022-12-27T15:53:13.905Z,5.04
2022-12-27T15:56:11.699Z,4.93
2022-12-27T15:58:40.360Z,4.81
2022-12-27T16:01:29.580Z,4.79
2022-12-27T16:03:59.453Z,4.71
2022-12-27T16:06:51.709Z,4.50
2022-12-27T16:09:32.680Z,4.58
2022-12-27T16:12:05.849Z,4.78
2022-12-27T16:14:38.318Z,4.65
2022-12-27T16:17:27.995Z,4.60
2022-12-27T16:20:14.426Z,4.76
2022-12-27T16:22:45.600Z,4.36
2022-12-27T16:25:30.571Z,4.28
2022-12-27T16:28:06.219Z,4.21
2022-12-27T16:30:39.822Z,4.21
2022-12-27T16:33:24.221Z,4.40
2022-12-27T16:36:24.431Z,4.34
2022-12-27T16:39:15.356Z,4.19
2022-12-27T16:42:01.735Z,4.17
2022-12-27T16:44:48.563Z,4.31
2022-12-27T16:47:41.651Z,4.16
2022-12-27T16:50:34.780Z,4.02
2022-12-27T16:53:37.002Z,4.29
2022-12-27T16:56:16.009Z,4.23
2022-12-27T16:58:44.230Z,4.13
2022-12-27T17:01:56.722Z,4.11
2022-12-27T17:04:53.300Z,4.21
2022-12-27T17:07:51.639Z,4.09
2022-12-27T17:10:56.358Z,4.15
2022-12-27T17:13:46.184Z,4.24
2022-12-27T17:16:22.689Z,4.28
2022-12-27T17:18:56.124Z,4.19
2022-12-27T17:21:30.378Z,4.21
2022-12-27T17:24:02.503Z,4.26
2022-12-27T17:26:58.970Z,4.28
2022-12-27T17:29:41.167Z,4.36
2022-12-27T17:32:20.781Z,4.33
2022-12-27T17:34:58.145Z,4.20
2022-12-27T17:37:33.405Z,4.18
2022-12-27T17:40:22.138Z,4.19
2022-12-27T17:43:22.253Z,4.21
2022-12-27T17:45:57.953Z,3.99
2022-12-27T17:48:29.231Z,3.89
2022-12-27T17:51:01.953Z,3.73
2022-12-27T17:53:47.362Z,3.79
2022-12-27T17:56:39.774Z,3.66
2022-12-27T17:59:13.491Z,3.73
2022-12-27T18:01:48.464Z,3.61
2022-12-27T18:04:24.264Z,3.45
2022-12-27T18:06:55.702Z,3.48
2022-12-27T18:09:36.489Z,3.41
2022-12-27T18:12:12.187Z,3.55
2022-12-27T18:14:40.318Z,3.39
2022-12-27T18:17:08.321Z,3.36
2022-12-27T18:19:36.288Z,3.50
2022-12-27T18:22:04.382Z,3.31
2022-12-27T18:24:34.511Z,3.22
2022-12-27T18:27:06.498Z,3.18
2022-12-27T18:29:35.182Z,3.16
2022-12-27T18:32:08.707Z,3.13
2022-12-27T18:34:42.290Z,3.14
2022-12-27T18:37:13.097Z,3.14
2022-12-27T18:39:47.802Z,3.08
2022-12-27T18:42:20.249Z,3.24
2022-12-27T18:44:53.035Z,3.18
2022-12-27T18:47:23.537Z,3.18
2022-12-27T18:49:56.874Z,3.01
2022-12-27T18:52:30.912Z,3.07
2022-12-27T18:55:07.211Z,3.10
2022-12-27T18:57:37.858Z,2.90
2022-12-27T19:00:21.478Z,2.87
2022-12-27T19:02:50.743Z,2.88
2022-12-27T19:05:28.405Z,2.86
2022-12-27T19:08:00.958Z,2.65
2022-12-27T19:10:33.365Z,2.88
2022-12-27T19:13:03.687Z,2.72
2022-12-27T19:15:41.101Z,2.78
2022-12-27T19:18:23.070Z,2.73
2022-12-27T19:20:55.814Z,2.56
2022-12-27T19:23:30.364Z,2.54
2022-12-27T19:25:59.675Z,2.57
2022-12-27T19:28:30.313Z,2.51
2022-12-27T19:31:09.583Z,2.48
2022-12-27T19:33:37.792Z,2.57
2022-12-27T19:36:10.085Z,2.56
2022-12-27T19:38:47.479Z,2.68
2022-12-27T19:41:16.186Z,2.78
2022-12-27T19:43:47.597Z,2.70
2022-12-27T19:46:18.891Z,2.77
2022-12-27T19:49:01.066Z,2.68
2022-12-27T19:51:37.082Z,2.56
2022-12-27T19:54:08.832Z,2.52
2022-12-27T19:56:36.801Z,2.48
2022-12-27T19:59:06.126Z,2.51
2022-12-27T20:01:34.931Z,2.66
2022-12-27T20:04:02.895Z,2.54
2022-12-27T20:06:30.866Z,2.55
2022-12-27T20:08:58.845Z,2.72
2022-12-27T20:11:30.709Z,2.84
2022-12-27T20:13:58.684Z,2.92
2022-12-27T20:16:28.505Z,2.82
2022-12-27T20:18:56.541Z,2.71
2022-12-27T20:21:26.849Z,2.70
2022-12-27T20:23:54.766Z,2.74
2022-12-27T20:26:25.809Z,2.74
2022-12-27T20:28:54.707Z,2.71
2022-12-27T20:31:23.152Z,2.81
2022-12-27T20:33:57.139Z,2.74
2022-12-27T20:36:25.635Z,2.90
2022-12-27T20:38:53.684Z,2.95
2022-12-27T20:41:22.938Z,2.68
2022-12-27T20:43:55.667Z,2.59
2022-12-27T20:46:24.684Z,2.60
2022-12-27T20:48:57.861Z,2.66
2022-12-27T20:51:28.234Z,2.62
2022-12-27T20:53:57.485Z,2.71
2022-12-27T20:56:26.060Z,2.92
2022-12-27T20:58:54.163Z,2.78
2022-12-27T21:01:24.558Z,2.66
2022-12-27T21:03:54.275Z,2.75
2022-12-27T21:06:28.523Z,2.86
2022-12-27T21:08:58.575Z,2.88
2022-12-27T21:11:28.924Z,2.93
2022-12-27T21:13:56.932Z,2.97
2022-12-27T21:16:27.047Z,3.03
2022-12-27T21:18:56.194Z,2.91
2022-12-27T21:21:28.865Z,3.00
2022-12-27T21:23:57.581Z,3.11
2022-12-27T21:26:27.827Z,2.95
2022-12-27T21:28:56.453Z,3.04
2022-12-27T21:31:24.842Z,2.95
2022-12-27T21:33:55.475Z,3.31
2022-12-27T21:36:26.173Z,3.07
2022-12-27T21:38:54.959Z,3.18
2022-12-27T21:41:25.520Z,3.09
2022-12-27T21:43:54.075Z,3.20
2022-12-27T21:46:24.671Z,3.31
2022-12-27T21:48:56.047Z,3.18
2022-12-27T21:51:26.553Z,3.27
2022-12-27T21:53:54.601Z,3.15
2022-12-27T21:56:22.875Z,3.11
2022-12-27T21:58:51.533Z,3.26
2022-12-27T22:01:21.661Z,3.25
2022-12-27T22:03:51.544Z,3.11
2022-12-27T22:06:22.404Z,3.22
2022-12-27T22:08:53.205Z,3.30
2022-12-27T22:11:23.067Z,3.34
2022-12-27T22:13:51.608Z,3.34
2022-12-27T22:16:21.787Z,3.46
2022-12-27T22:18:50.577Z,3.30
2022-12-27T22:21:20.407Z,3.37
2022-12-27T22:23:50.109Z,3.43
2022-12-27T22:26:21.429Z,3.50
2022-12-27T22:28:49.471Z,3.40
2022-12-27T22:31:19.680Z,3.43
2022-12-27T22:33:48.454Z,3.50
2022-12-27T22:36:18.909Z,3.50
2022-12-27T22:38:49.729Z,3.39
2022-12-27T22:41:25.872Z,3.35
2022-12-27T22:43:55.627Z,3.48
2022-12-27T22:46:24.585Z,3.57
2022-12-27T22:48:57.317Z,3.47
2022-12-27T22:51:27.574Z,3.41
2022-12-27T22:53:56.932Z,3.52
2022-12-27T22:56:28.454Z,3.42
2022-12-27T22:58:56.406Z,3.37
2022-12-27T23:01:27.680Z,3.33
2022-12-27T23:03:56.121Z,3.31
2022-12-27T23:06:24.520Z,3.48
2022-12-27T23:08:55.537Z,3.41
2022-12-27T23:11:27.504Z,3.42
2022-12-27T23:13:56.862Z,3.47
2022-12-27T23:16:25.181Z,3.44
2022-12-27T23:18:53.479Z,3.38
2022-12-27T23:21:24.393Z,3.48
2022-12-27T23:23:53.571Z,3.38
2022-12-27T23:26:22.927Z,3.35
2022-12-27T23:28:53.519Z,3.34
2022-12-27T23:31:23.504Z,3.56
2022-12-27T23:33:52.237Z,3.38
2022-12-27T23:36:20.987Z,3.37
2022-12-27T23:38:49.636Z,3.45
2022-12-27T23:41:20.069Z,3.51
2022-12-27T23:43:53.344Z,3.50
2022-12-27T23:46:25.234Z,3.51
2022-12-27T23:48:53.246Z,3.52
2022-12-27T23:51:22.025Z,3.53
2022-12-27T23:53:50.290Z,3.64
2022-12-27T23:56:20.459Z,3.71
2022-12-27T23:58:49.511Z,3.58
